Time;durP1;ratioP1;P1;durP2;ratioP2;P2;SDS_P1;SDS_P2;PMS_P1;PMS_P2;Temp;Humidity;BMP_temperature;BMP_pressure;BME280_temperature;BME280_humidity;BME280_pressure;Samples;Min_cycle;Max_cycle;Signal;HPM_P1;HPM_P2
2023/09/15 00:01:19;;;;;;;0.00;0.00;;;;;;;10.56;100.00;96973.34;4999768;28;20045;-78
2023/09/15 00:04:05;;;;;;;0.10;0.10;;;;;;;10.37;100.00;96969.22;5003021;28;20258;-78
2023/09/15 00:06:51;;;;;;;0.00;0.00;;;;;;;10.25;100.00;96971.88;5001288;28;20048;-78
2023/09/15 00:09:37;;;;;;;0.00;0.00;;;;;;;10.19;100.00;96972.78;4992483;28;20130;-78
2023/09/15 00:12:23;;;;;;;0.10;0.10;;;;;;;10.25;100.00;96971.88;5000898;28;20053;-78
2023/09/15 00:15:10;;;;;;;0.03;0.03;;;;;;;10.31;100.00;96966.41;5001296;28;20538;-78
2023/09/15 00:17:56;;;;;;;0.10;0.10;;;;;;;10.28;100.00;96972.25;4999966;28;20052;-78
2023/09/15 00:20:42;;;;;;;0.10;0.10;;;;;;;10.28;100.00;96956.19;5002228;28;20037;-78
2023/09/15 00:23:28;;;;;;;0.10;0.10;;;;;;;10.36;100.00;96963.06;5002419;28;20238;-78
2023/09/15 00:26:13;;;;;;;0.10;0.10;;;;;;;10.37;100.00;96959.31;5002280;28;20053;-78
2023/09/15 00:29:02;;;;;;;0.10;0.10;;;;;;;10.39;100.00;96959.91;5000131;28;20184;-77
2023/09/15 00:31:47;;;;;;;0.10;0.10;;;;;;;10.35;100.00;96950.72;5001714;28;20072;-77
2023/09/15 00:34:33;;;;;;;0.10;0.10;;;;;;;10.35;100.00;96957.91;5000588;28;20048;-77
2023/09/15 00:37:19;;;;;;;0.10;0.10;;;;;;;10.36;100.00;96943.50;4993152;28;20281;-78
2023/09/15 00:40:07;;;;;;;0.10;0.10;;;;;;;10.34;100.00;96946.41;4992191;28;20331;-78
2023/09/15 00:42:54;;;;;;;0.10;0.10;;;;;;;10.25;100.00;96950.50;5001633;28;20764;-78
2023/09/15 00:45:40;;;;;;;0.10;0.10;;;;;;;10.04;100.00;96954.56;4989518;28;20666;-78
2023/09/15 00:48:26;;;;;;;0.10;0.10;;;;;;;9.73;100.00;96956.50;4986964;28;20041;-78
2023/09/15 00:51:12;;;;;;;0.10;0.10;;;;;;;9.57;100.00;96951.00;4990577;28;20108;-78
2023/09/15 00:53:58;;;;;;;0.10;0.10;;;;;;;9.67;100.00;96953.94;5001916;28;20038;-78
2023/09/15 00:56:44;;;;;;;0.10;0.10;;;;;;;9.71;100.00;96953.22;4988153;28;20072;-78
2023/09/15 00:59:31;;;;;;;0.05;0.05;;;;;;;9.53;100.00;96950.66;5002637;28;20180;-78
2023/09/15 01:02:18;;;;;;;0.10;0.10;;;;;;;9.37;100.00;96951.31;5001701;28;20435;-78
2023/09/15 01:05:04;;;;;;;0.10;0.10;;;;;;;9.27;100.00;96943.06;4986425;28;20301;-78
2023/09/15 01:07:52;;;;;;;0.10;0.10;;;;;;;9.29;100.00;96947.13;4989286;28;20049;-78
2023/09/15 01:10:40;;;;;;;0.10;0.10;;;;;;;9.14;100.00;96946.72;4999631;28;20128;-78
2023/09/15 01:13:26;;;;;;;0.10;0.10;;;;;;;9.11;100.00;96940.00;4978218;28;20510;-78
2023/09/15 01:16:24;;;;;;;0.03;0.03;;;;;;;9.20;100.00;96937.81;5002375;28;20480;-78
2023/09/15 01:19:31;;;;;;;0.10;0.10;;;;;;;9.34;100.00;96933.91;5002316;28;20092;-78
2023/09/15 01:22:35;;;;;;;0.10;0.10;;;;;;;9.45;100.00;96929.63;4988297;28;20092;-78
2023/09/15 01:25:22;;;;;;;0.10;0.10;;;;;;;9.49;100.00;96939.63;5003998;28;20439;-78
2023/09/15 01:28:23;;;;;;;0.10;0.10;;;;;;;9.46;100.00;96936.59;5001307;28;20053;-78
2023/09/15 01:31:11;;;;;;;0.10;0.10;;;;;;;9.47;100.00;96938.22;4993140;28;20054;-78
2023/09/15 01:33:57;;;;;;;0.10;0.10;;;;;;;9.47;100.00;96938.22;5000601;28;20532;-79
2023/09/15 01:36:45;;;;;;;0.10;0.10;;;;;;;9.36;100.00;96926.47;4988959;28;20435;-78
2023/09/15 01:39:30;;;;;;;0.10;0.10;;;;;;;9.31;100.00;96929.00;4985737;28;20045;-79
2023/09/15 01:42:17;;;;;;;0.03;0.03;;;;;;;9.33;100.00;96928.78;4992208;28;20472;-78
2023/09/15 01:45:03;;;;;;;0.10;0.10;;;;;;;9.32;100.00;96927.16;5002635;28;20060;-78
2023/09/15 01:47:50;;;;;;;0.10;0.10;;;;;;;9.32;100.00;96921.81;4985597;28;20456;-78
2023/09/15 01:50:37;;;;;;;0.10;0.10;;;;;;;9.27;100.00;96925.19;4986904;28;20499;-78
2023/09/15 01:53:24;;;;;;;0.00;0.00;;;;;;;9.27;100.00;96921.69;4998538;28;20076;-78
2023/09/15 01:56:10;;;;;;;0.10;0.10;;;;;;;9.29;100.00;96915.06;4989614;28;20056;-77
2023/09/15 01:58:56;;;;;;;0.00;0.00;;;;;;;9.37;100.00;96906.72;4988785;28;20037;-78
2023/09/15 02:01:42;;;;;;;0.10;0.10;;;;;;;9.49;100.00;96915.59;4988057;28;20078;-77
2023/09/15 02:04:28;;;;;;;0.10;0.10;;;;;;;9.57;100.00;96917.13;4988452;28;20034;-77
2023/09/15 02:07:14;;;;;;;0.10;0.10;;;;;;;9.57;100.00;96916.28;4999848;28;20034;-78
2023/09/15 02:10:00;;;;;;;0.00;0.00;;;;;;;9.63;100.00;96918.84;5000482;28;20652;-78
2023/09/15 02:12:46;;;;;;;0.10;0.10;;;;;;;9.54;100.00;96922.91;4983890;28;20128;-78
2023/09/15 02:15:31;;;;;;;0.00;0.00;;;;;;;9.54;100.00;96932.78;5001410;28;20490;-77
2023/09/15 02:18:18;;;;;;;0.10;0.10;;;;;;;9.46;100.00;96923.25;4987018;28;20621;-77
2023/09/15 02:21:04;;;;;;;0.10;0.10;;;;;;;9.45;100.00;96918.94;5000345;28;20065;-78
2023/09/15 02:23:50;;;;;;;0.00;0.00;;;;;;;9.49;100.00;96920.09;4998487;28;20487;-78
2023/09/15 02:26:36;;;;;;;0.10;0.10;;;;;;;9.39;100.00;96912.66;4998547;28;20519;-78
2023/09/15 02:29:22;;;;;;;0.10;0.10;;;;;;;9.18;100.00;96915.84;4982994;28;20488;-78
2023/09/15 02:32:08;;;;;;;0.10;0.10;;;;;;;9.05;100.00;96913.41;4997638;28;20407;-77
2023/09/15 02:34:54;;;;;;;0.10;0.10;;;;;;;8.99;100.00;96915.09;4970914;28;20442;-78
2023/09/15 02:37:40;;;;;;;0.10;0.10;;;;;;;8.85;100.00;96913.66;4985514;28;20054;-78
2023/09/15 02:40:26;;;;;;;0.10;0.10;;;;;;;8.85;100.00;96919.00;4974135;28;20139;-77
2023/09/15 02:43:14;;;;;;;0.10;0.10;;;;;;;8.80;100.00;96902.88;4988962;28;20700;-78
2023/09/15 02:46:04;;;;;;;0.10;0.10;;;;;;;8.69;100.00;96915.09;4987440;28;20530;-78
2023/09/15 02:48:51;;;;;;;0.00;0.00;;;;;;;8.82;100.00;96914.13;4984675;28;20255;-78
2023/09/15 02:51:37;;;;;;;0.10;0.10;;;;;;;8.93;100.00;96913.34;4986899;28;20048;-78
2023/09/15 02:54:23;;;;;;;0.10;0.10;;;;;;;8.99;100.00;96899.09;4988446;28;20043;-75
2023/09/15 02:57:09;;;;;;;0.10;0.10;;;;;;;9.10;100.00;96906.31;4986344;28;20395;-77
2023/09/15 02:59:55;;;;;;;0.10;0.10;;;;;;;9.19;100.00;96899.63;4997468;28;20128;-77
2023/09/15 03:02:41;;;;;;;0.10;0.10;;;;;;;9.24;100.00;96901.59;4984503;28;20050;-77
2023/09/15 03:05:27;;;;;;;0.00;0.00;;;;;;;9.20;100.00;96900.44;4986220;28;20128;-78
2023/09/15 03:08:14;;;;;;;0.10;0.10;;;;;;;9.04;100.00;96899.22;4990350;28;20124;-78
2023/09/15 03:11:01;;;;;;;0.05;0.05;;;;;;;9.01;100.00;96894.34;4987701;28;21706;-78
2023/09/15 03:13:47;;;;;;;0.10;0.10;;;;;;;9.00;100.00;96895.38;4988907;28;20546;-77
2023/09/15 03:16:33;;;;;;;0.10;0.10;;;;;;;8.99;100.00;96888.41;4988841;28;20650;-78
2023/09/15 03:19:19;;;;;;;0.10;0.10;;;;;;;8.99;100.00;96890.28;4989379;28;20419;-78
2023/09/15 03:22:05;;;;;;;0.10;0.10;;;;;;;8.95;100.00;96889.94;5003025;28;20041;-78
2023/09/15 03:24:51;;;;;;;0.10;0.10;;;;;;;8.97;100.00;96895.84;4993610;28;20144;-77
2023/09/15 03:27:37;;;;;;;0.10;0.10;;;;;;;8.93;100.00;96889.31;4994019;28;20091;-78
2023/09/15 03:30:23;;;;;;;0.10;0.10;;;;;;;8.98;100.00;96893.97;5001980;28;20053;-78
2023/09/15 03:33:10;;;;;;;0.10;0.10;;;;;;;8.87;100.00;96890.22;4993431;28;20037;-78
2023/09/15 03:35:57;;;;;;;0.10;0.10;;;;;;;8.65;100.00;96880.06;4994371;28;20072;-79
2023/09/15 03:38:43;;;;;;;0.10;0.10;;;;;;;8.69;100.00;96888.41;4986611;28;20088;-78
2023/09/15 03:41:29;;;;;;;0.10;0.10;;;;;;;8.57;100.00;96879.56;4974588;28;20049;-78
2023/09/15 03:44:15;;;;;;;0.10;0.10;;;;;;;8.48;100.00;96881.72;4994014;28;20439;-79
2023/09/15 03:47:02;;;;;;;0.10;0.10;;;;;;;8.50;100.00;96879.66;4985963;28;20747;-78
2023/09/15 03:49:48;;;;;;;0.10;0.10;;;;;;;8.52;100.00;96874.91;5004553;28;20053;-78
2023/09/15 03:52:34;;;;;;;0.10;0.10;;;;;;;8.53;100.00;96879.19;4991837;28;20505;-79
2023/09/15 03:55:20;;;;;;;0.10;0.10;;;;;;;8.53;100.00;96873.03;4992723;28;20842;-78
2023/09/15 03:58:08;;;;;;;0.10;0.10;;;;;;;8.55;100.00;96869.09;4988351;28;20038;-79
2023/09/15 04:00:54;;;;;;;0.10;0.10;;;;;;;8.71;100.00;96874.84;4991494;28;20749;-78
2023/09/15 04:03:40;;;;;;;0.10;0.10;;;;;;;8.80;100.00;96870.84;4990225;28;20067;-78
2023/09/15 04:06:26;;;;;;;0.10;0.10;;;;;;;8.86;100.00;96873.41;4991928;28;20392;-78
2023/09/15 04:09:15;;;;;;;0.10;0.10;;;;;;;8.82;100.00;96874.09;4993536;28;20412;-79
2023/09/15 04:12:03;;;;;;;0.10;0.10;;;;;;;8.76;100.00;96873.13;5001677;28;20552;-78
2023/09/15 04:14:49;;;;;;;0.00;0.00;;;;;;;8.67;100.00;96866.50;5001350;28;21371;-78
2023/09/15 04:17:35;;;;;;;0.10;0.10;;;;;;;8.70;100.00;96870.56;4979704;28;20069;-78
2023/09/15 04:20:21;;;;;;;0.10;0.10;;;;;;;8.64;100.00;96867.78;5004180;28;20433;-78
2023/09/15 04:23:07;;;;;;;0.10;0.10;;;;;;;8.62;100.00;96871.69;4984864;28;20283;-77
2023/09/15 04:25:53;;;;;;;0.10;0.10;;;;;;;8.62;100.00;96866.34;4992844;28;20060;-78
2023/09/15 04:28:39;;;;;;;0.10;0.10;;;;;;;8.60;100.00;96869.25;4990917;28;20045;-78
2023/09/15 04:31:25;;;;;;;0.10;0.10;;;;;;;8.62;100.00;96880.50;5003328;28;20061;-78
2023/09/15 04:34:14;;;;;;;0.10;0.10;;;;;;;8.62;100.00;96880.50;4986760;28;20091;-77
2023/09/15 04:37:00;;;;;;;0.10;0.10;;;;;;;8.59;100.00;96866.81;4984888;28;20033;-78
2023/09/15 04:39:49;;;;;;;0.10;0.10;;;;;;;8.56;100.00;96878.75;4993403;28;20088;-79
2023/09/15 04:42:40;;;;;;;0.10;0.10;;;;;;;8.53;100.00;96873.03;4989308;28;20091;-76
2023/09/15 04:45:26;;;;;;;0.10;0.10;;;;;;;8.55;100.00;96881.63;4989186;28;20038;-78
2023/09/15 04:48:12;;;;;;;0.10;0.10;;;;;;;8.53;100.00;96884.53;4991655;28;20108;-77
2023/09/15 04:50:58;;;;;;;0.10;0.10;;;;;;;8.50;100.00;96887.66;4983835;28;20488;-77
2023/09/15 04:53:44;;;;;;;0.10;0.10;;;;;;;8.48;100.00;96884.41;5001377;28;20050;-78
2023/09/15 04:56:30;;;;;;;0.10;0.10;;;;;;;8.47;100.00;96888.09;4985999;28;20399;-78
2023/09/15 04:59:16;;;;;;;0.10;0.10;;;;;;;8.41;100.00;96875.66;4991013;28;20045;-78
2023/09/15 05:02:02;;;;;;;0.10;0.10;;;;;;;8.43;100.00;96884.25;4989754;28;20042;-78
2023/09/15 05:04:55;;;;;;;0.10;0.10;;;;;;;8.34;100.00;96885.56;4992555;28;20038;-78
2023/09/15 05:07:41;;;;;;;0.10;0.10;;;;;;;8.19;100.00;96882.47;4996731;28;20450;-78
2023/09/15 05:10:27;;;;;;;0.10;0.10;;;;;;;8.23;100.00;96888.97;5000724;28;20141;-77
2023/09/15 05:13:15;;;;;;;0.10;0.10;;;;;;;8.21;100.00;96894.53;4989393;28;20104;-80
2023/09/15 05:16:02;;;;;;;0.10;0.10;;;;;;;8.22;100.00;96893.47;4987922;28;20098;-79
2023/09/15 05:18:49;;;;;;;0.10;0.10;;;;;;;8.30;100.00;96895.03;4989898;28;20084;-80
2023/09/15 05:21:35;;;;;;;0.10;0.10;;;;;;;8.37;100.00;96890.47;4987944;28;20033;-79
2023/09/15 05:24:24;;;;;;;0.10;0.10;;;;;;;8.46;100.00;96890.97;4976200;28;20438;-80
2023/09/15 05:27:12;;;;;;;0.00;0.00;;;;;;;8.47;100.00;96889.94;4993708;28;20136;-79
2023/09/15 05:29:58;;;;;;;0.10;0.10;;;;;;;8.44;100.00;96891.22;4991502;28;20403;-78
2023/09/15 05:32:45;;;;;;;0.08;0.08;;;;;;;8.44;100.00;96896.53;4989240;28;20546;-79
2023/09/15 05:35:31;;;;;;;0.10;0.10;;;;;;;8.47;100.00;96882.75;5002277;28;20223;-79
2023/09/15 05:38:17;;;;;;;0.10;0.10;;;;;;;8.54;100.00;96896.81;5002819;28;20077;-80
2023/09/15 05:41:03;;;;;;;0.10;0.10;;;;;;;8.57;100.00;96888.38;4987244;28;20547;-80
2023/09/15 05:43:49;;;;;;;0.10;0.10;;;;;;;8.61;100.00;96894.06;4989088;28;20119;-80
2023/09/15 05:46:35;;;;;;;0.10;0.10;;;;;;;8.65;100.00;96898.75;4999888;28;20268;-80
2023/09/15 05:49:21;;;;;;;0.10;0.10;;;;;;;8.69;100.00;96884.94;5000639;28;20096;-80
2023/09/15 05:52:07;;;;;;;0.10;0.10;;;;;;;8.90;100.00;96895.94;4985862;28;20056;-81
2023/09/15 05:54:53;;;;;;;0.10;0.10;;;;;;;8.96;100.00;96899.56;5001855;28;20045;-80
2023/09/15 05:57:39;;;;;;;0.10;0.10;;;;;;;9.07;100.00;96904.09;5000232;28;20103;-80
2023/09/15 06:00:25;;;;;;;0.10;0.10;;;;;;;9.15;100.00;96906.44;4991819;28;20076;-80
2023/09/15 06:03:11;;;;;;;0.00;0.00;;;;;;;9.23;100.00;96896.47;4987929;28;20046;-80
2023/09/15 06:05:57;;;;;;;0.10;0.10;;;;;;;9.36;100.00;96904.28;4999558;28;20539;-80
2023/09/15 06:08:43;;;;;;;0.10;0.10;;;;;;;9.44;100.00;96901.28;5001148;28;20376;-81
2023/09/15 06:11:29;;;;;;;0.10;0.10;;;;;;;9.52;100.00;96894.78;5000136;28;20046;-80
2023/09/15 06:14:14;;;;;;;0.10;0.10;;;;;;;9.58;100.00;96888.53;4986929;28;20492;-80
2023/09/15 06:17:01;;;;;;;0.10;0.10;;;;;;;9.71;100.00;96880.28;4986956;28;20045;-80
2023/09/15 06:19:47;;;;;;;0.10;0.10;;;;;;;9.80;100.00;96884.22;4983063;28;20042;-81
2023/09/15 06:22:34;;;;;;;0.10;0.10;;;;;;;9.87;100.00;96882.25;5001155;28;20033;-80
2023/09/15 06:25:20;;;;;;;0.10;0.10;;;;;;;10.04;100.00;96885.03;4987109;28;20050;-80
2023/09/15 06:28:07;;;;;;;0.10;0.10;;;;;;;10.11;100.00;96879.53;4987939;28;20029;-80
2023/09/15 06:30:53;;;;;;;0.10;0.10;;;;;;;10.22;100.00;96892.09;5000793;28;20395;-80
2023/09/15 06:33:39;;;;;;;0.10;0.10;;;;;;;10.33;100.00;96883.25;4998359;28;20046;-80
2023/09/15 06:36:26;;;;;;;0.10;0.10;;;;;;;10.40;100.00;96881.25;5000575;28;20148;-81
2023/09/15 06:39:14;;;;;;;0.10;0.10;;;;;;;10.50;100.00;96878.78;4999080;28;20033;-80
2023/09/15 06:42:00;;;;;;;0.10;0.10;;;;;;;10.66;100.00;96879.06;5005027;28;20061;-80
2023/09/15 06:44:46;;;;;;;0.08;0.08;;;;;;;10.76;100.00;96884.66;5001584;28;20076;-80
2023/09/15 06:47:31;;;;;;;0.10;0.10;;;;;;;10.85;100.00;96880.53;5005127;28;20041;-79
2023/09/15 06:50:18;;;;;;;0.10;0.10;;;;;;;10.96;100.00;96890.34;5004377;28;20606;-79
2023/09/15 06:53:04;;;;;;;0.10;0.10;;;;;;;11.08;100.00;96890.31;4994332;28;20527;-80
2023/09/15 06:55:52;;;;;;;0.10;0.10;;;;;;;11.16;100.00;96882.69;4992266;28;20444;-80
2023/09/15 06:58:38;;;;;;;0.10;0.10;;;;;;;11.27;100.00;96888.22;4991360;28;20338;-79
2023/09/15 07:01:24;;;;;;;0.10;0.10;;;;;;;11.37;100.00;96888.41;5005394;28;20683;-81
2023/09/15 07:04:12;;;;;;;0.08;0.08;;;;;;;11.39;100.00;96889.78;5004266;28;20045;-81
2023/09/15 07:06:58;;;;;;;0.10;0.10;;;;;;;11.49;100.00;96891.00;5004553;28;20391;-81
2023/09/15 07:09:44;;;;;;;0.10;0.10;;;;;;;11.63;100.00;96892.31;4996344;28;20045;-81
2023/09/15 07:12:30;;;;;;;0.00;0.00;;;;;;;11.69;100.00;96888.66;4992317;28;20049;-83
2023/09/15 07:15:16;;;;;;;0.10;0.10;;;;;;;11.80;100.00;96881.56;5006414;28;20037;-82
2023/09/15 07:18:06;;;;;;;0.00;0.00;;;;;;;11.89;100.00;96874.75;5001940;28;20124;-80
2023/09/15 07:20:52;;;;;;;0.10;0.10;;;;;;;12.01;100.00;96874.66;5003757;28;20862;-81
2023/09/15 07:23:37;;;;;;;0.10;0.10;;;;;;;12.08;100.00;96876.13;4990961;28;20041;-81
2023/09/15 07:26:24;;;;;;;0.10;0.10;;;;;;;12.18;100.00;96880.78;5003937;28;20033;-82
2023/09/15 07:29:10;;;;;;;0.03;0.03;;;;;;;12.24;100.00;96875.25;5004940;28;20482;-80
2023/09/15 07:31:57;;;;;;;0.10;0.10;;;;;;;12.34;100.00;96879.13;5003774;28;20042;-80
2023/09/15 07:34:44;;;;;;;0.10;0.10;;;;;;;12.45;100.00;96867.44;5003901;28;20033;-79
2023/09/15 07:37:30;;;;;;;0.10;0.10;;;;;;;12.55;100.00;96857.66;4993180;28;20621;-84
2023/09/15 07:40:18;;;;;;;0.10;0.10;;;;;;;12.60;100.00;96858.75;4989761;28;20037;-84
2023/09/15 07:43:04;;;;;;;0.10;0.10;;;;;;;12.72;100.00;96867.50;5003451;28;20053;-81
2023/09/15 07:45:50;;;;;;;0.10;0.10;;;;;;;12.89;100.00;96872.78;4987159;28;20249;-80
2023/09/15 07:48:36;;;;;;;0.10;0.10;;;;;;;12.98;100.00;96873.94;5002826;28;20065;-80
2023/09/15 07:51:23;;;;;;;0.03;0.03;;;;;;;13.08;100.00;96871.38;5003532;28;20053;-80
2023/09/15 07:54:09;;;;;;;0.10;0.10;;;;;;;13.20;100.00;96877.41;4975914;28;20359;-80
2023/09/15 07:56:55;;;;;;;0.10;0.10;;;;;;;13.23;100.00;96868.84;5021845;28;20242;-79
2023/09/15 07:59:41;;;;;;;0.10;0.10;;;;;;;13.35;100.00;96866.00;5023729;28;20054;-82
2023/09/15 08:02:27;;;;;;;0.10;0.10;;;;;;;13.51;100.00;96864.22;5009965;28;20043;-81
2023/09/15 08:05:13;;;;;;;0.10;0.10;;;;;;;13.61;100.00;96865.13;5010583;28;20061;-80
2023/09/15 08:07:59;;;;;;;0.10;0.10;;;;;;;13.71;100.00;96852.84;5003967;28;20301;-81
2023/09/15 08:10:47;;;;;;;0.10;0.10;;;;;;;13.90;100.00;96862.09;5000684;28;20581;-81
2023/09/15 08:13:33;;;;;;;0.10;0.10;;;;;;;14.06;100.00;96863.00;4986014;28;20148;-81
2023/09/15 08:16:18;;;;;;;0.20;0.20;;;;;;;14.07;100.00;96851.97;5003139;28;20419;-80
2023/09/15 08:19:04;;;;;;;0.10;0.10;;;;;;;14.22;100.00;96862.81;5002959;28;20140;-80
2023/09/15 08:21:50;;;;;;;0.10;0.10;;;;;;;14.32;100.00;96853.16;4987502;28;20034;-82
2023/09/15 08:24:37;;;;;;;0.10;0.10;;;;;;;14.44;100.00;96859.16;5002858;28;20531;-81
2023/09/15 08:27:27;;;;;;;0.10;0.10;;;;;;;14.39;100.00;96859.91;5003198;28;20393;-81
2023/09/15 08:30:16;;;;;;;0.10;0.10;;;;;;;14.44;100.00;96853.75;5002366;28;20100;-82
2023/09/15 08:33:03;;;;;;;0.10;0.10;;;;;;;14.47;100.00;96854.09;5001784;28;20060;-81
2023/09/15 08:35:48;;;;;;;0.10;0.10;;;;;;;14.63;100.00;96846.88;4992852;28;20037;-83
2023/09/15 08:38:34;;;;;;;0.10;0.10;;;;;;;14.72;100.00;96849.88;5002983;28;20029;-80
2023/09/15 08:41:33;;;;;;;0.10;0.10;;;;;;;14.93;100.00;96850.69;5000442;28;20089;-82
2023/09/15 08:44:20;;;;;;;0.10;0.10;;;;;;;15.04;100.00;96845.06;4983197;28;20609;-82
2023/09/15 08:47:07;;;;;;;0.10;0.10;;;;;;;15.10;100.00;96845.06;4997800;28;20458;-82
2023/09/15 08:49:54;;;;;;;0.10;0.10;;;;;;;15.04;100.00;96844.28;5001810;28;20095;-83
2023/09/15 08:52:41;;;;;;;0.10;0.10;;;;;;;15.08;100.00;96844.53;4991344;28;20045;-81
2023/09/15 08:55:28;;;;;;;0.10;0.10;;;;;;;15.27;100.00;96848.34;4998854;28;20223;-82
2023/09/15 08:58:14;;;;;;;0.10;0.10;;;;;;;15.40;100.00;96845.09;4995331;28;20040;-82
2023/09/15 09:01:01;;;;;;;0.10;0.10;;;;;;;15.39;100.00;96846.16;5002612;28;20061;-82
2023/09/15 09:03:48;;;;;;;0.20;0.20;;;;;;;15.43;100.00;96851.84;5001362;28;20042;-83
2023/09/15 09:06:37;;;;;;;0.10;0.10;;;;;;;15.58;100.00;96849.16;5002310;28;20112;-81
2023/09/15 09:09:24;;;;;;;0.15;0.15;;;;;;;15.67;100.00;96850.25;5003103;28;20378;-82
2023/09/15 09:12:09;;;;;;;0.20;0.20;;;;;;;15.88;100.00;96851.03;4991153;28;20082;-83
2023/09/15 09:14:56;;;;;;;0.10;0.10;;;;;;;16.21;100.00;96851.50;5004091;28;20446;-81
2023/09/15 09:17:43;;;;;;;0.10;0.10;;;;;;;16.33;100.00;96852.00;5004952;28;20301;-83
2023/09/15 09:20:30;;;;;;;0.10;0.10;;;;;;;16.33;100.00;96850.09;4999478;28;20441;-84
2023/09/15 09:23:20;;;;;;;0.10;0.10;;;;;;;16.48;100.00;96846.53;5002718;28;20029;-82
2023/09/15 09:26:29;;;;;;;0.10;0.10;;;;;;;16.46;100.00;96845.19;5000911;28;20522;-81
2023/09/15 09:29:16;;;;;;;0.05;0.05;;;;;;;16.57;100.00;96849.47;5003391;28;20042;-81
2023/09/15 09:32:01;;;;;;;0.10;0.10;;;;;;;16.83;100.00;96845.59;5002568;28;20064;-81
2023/09/15 09:34:51;;;;;;;0.10;0.10;;;;;;;16.94;100.00;96839.03;4988262;28;20045;-83
2023/09/15 09:37:37;;;;;;;0.10;0.10;;;;;;;16.94;100.00;96838.22;5000972;28;20042;-82
2023/09/15 09:40:23;;;;;;;0.10;0.10;;;;;;;17.12;100.00;96845.69;5001770;28;20034;-84
2023/09/15 09:43:12;;;;;;;0.10;0.10;;;;;;;17.33;100.00;96835.53;5000764;28;20494;-82
2023/09/15 09:45:57;;;;;;;0.10;0.10;;;;;;;17.11;100.00;96829.72;4989348;28;20077;-83
2023/09/15 09:48:45;;;;;;;0.10;0.10;;;;;;;17.25;100.00;96844.25;4994206;28;20053;-83
2023/09/15 09:51:32;;;;;;;0.10;0.10;;;;;;;17.24;100.00;96827.22;4999798;28;20473;-83
2023/09/15 09:54:18;;;;;;;0.10;0.10;;;;;;;17.26;100.00;96829.63;5005163;28;20060;-81
2023/09/15 09:57:04;;;;;;;0.10;0.10;;;;;;;17.40;100.00;96833.31;5000362;28;20069;-83
2023/09/15 09:59:49;;;;;;;0.10;0.10;;;;;;;17.63;100.00;96822.84;5000867;28;20638;-81
2023/09/15 10:02:36;;;;;;;0.10;0.10;;;;;;;17.70;100.00;96831.44;5001745;28;20491;-81
2023/09/15 10:05:23;;;;;;;0.20;0.20;;;;;;;17.83;100.00;96824.59;5003438;28;20396;-84
2023/09/15 10:08:10;;;;;;;0.10;0.10;;;;;;;18.04;100.00;96832.19;5000525;28;20038;-82
2023/09/15 10:10:56;;;;;;;0.10;0.10;;;;;;;18.35;100.00;96824.53;5001415;28;20111;-83
2023/09/15 10:13:45;;;;;;;0.10;0.10;;;;;;;18.53;100.00;96825.69;5002188;28;20050;-83
2023/09/15 10:16:32;;;;;;;0.10;0.10;;;;;;;18.84;100.00;96815.28;4999563;28;20056;-83
2023/09/15 10:19:18;;;;;;;0.10;0.10;;;;;;;19.03;100.00;96814.47;5003186;28;20073;-81
2023/09/15 10:22:04;;;;;;;0.10;0.10;;;;;;;19.49;100.00;96812.66;5001862;28;21377;-82
2023/09/15 10:24:56;;;;;;;0.17;0.17;;;;;;;20.13;100.00;96820.25;5001121;28;20136;-84
2023/09/15 10:27:45;;;;;;;0.10;0.10;;;;;;;21.13;100.00;96813.81;4998988;28;20045;-84
2023/09/15 10:30:38;;;;;;;0.10;0.10;;;;;;;22.81;99.65;96805.91;5000113;28;20092;-83
2023/09/15 10:33:28;;;;;;;0.13;0.13;;;;;;;24.44;91.51;96801.34;5000679;28;20045;-83
2023/09/15 10:36:15;;;;;;;0.20;0.20;;;;;;;24.74;83.40;96810.34;4991336;28;20044;-82
2023/09/15 10:39:12;;;;;;;0.20;0.20;;;;;;;24.93;82.68;96806.38;5000474;28;20379;-81
2023/09/15 10:42:05;;;;;;;0.20;0.20;;;;;;;26.73;73.50;96804.88;4986992;28;20042;-83
2023/09/15 10:44:50;;;;;;;0.20;0.20;;;;;;;27.26;68.24;96805.72;5001120;28;20347;-84
2023/09/15 10:47:36;;;;;;;0.15;0.15;;;;;;;27.14;72.78;96792.81;4998060;28;20041;-85
2023/09/15 10:50:34;;;;;;;0.15;0.15;;;;;;;27.02;69.56;96790.09;5000641;28;20128;-84
2023/09/15 10:53:21;;;;;;;0.10;0.10;;;;;;;28.76;64.62;96780.22;4988696;28;20548;-83
2023/09/15 10:56:07;;;;;;;0.20;0.20;;;;;;;30.31;52.73;96780.19;5002158;28;20614;-83
2023/09/15 10:58:54;;;;;;;0.17;0.17;;;;;;;29.95;52.44;96781.50;4986571;28;20045;-82
2023/09/15 11:01:43;;;;;;;0.10;0.10;;;;;;;29.73;49.66;96774.81;4975014;28;20050;-81
2023/09/15 11:04:29;;;;;;;0.20;0.20;;;;;;;29.52;50.37;96780.72;4981569;28;20134;-81
2023/09/15 11:07:16;;;;;;;0.15;0.15;;;;;;;30.44;45.32;96776.09;5009419;28;20053;-82
2023/09/15 11:10:02;;;;;;;0.20;0.20;;;;;;;29.69;44.14;96774.72;4998698;28;20049;-82
2023/09/15 11:12:48;;;;;;;0.20;0.20;;;;;;;29.34;44.18;96763.00;5004254;28;20045;-81
2023/09/15 11:15:34;;;;;;;0.20;0.20;;;;;;;30.99;41.75;96754.44;5000689;28;20050;-84
2023/09/15 11:18:20;;;;;;;0.10;0.10;;;;;;;30.90;41.58;96756.69;4999821;28;20583;-82
2023/09/15 11:21:06;;;;;;;0.20;0.20;;;;;;;30.85;39.82;96756.19;5000802;28;20763;-83
2023/09/15 11:23:52;;;;;;;0.10;0.10;;;;;;;31.79;38.17;96743.97;4988551;28;20685;-83
2023/09/15 11:26:45;;;;;;;0.10;0.10;;;;;;;33.38;35.51;96731.66;5000873;28;20044;-82
2023/09/15 11:29:31;;;;;;;0.10;0.10;;;;;;;33.80;32.64;96752.41;5002886;28;20544;-82
2023/09/15 11:32:17;;;;;;;0.10;0.10;;;;;;;33.13;32.29;96753.72;5002471;28;20075;-82
2023/09/15 11:35:09;;;;;;;0.20;0.20;;;;;;;32.27;34.38;96748.75;5001132;28;20109;-82
2023/09/15 11:37:55;;;;;;;0.10;0.10;;;;;;;33.43;33.96;96736.84;5003872;28;20053;-82
2023/09/15 11:40:48;;;;;;;0.10;0.10;;;;;;;33.88;31.16;96742.91;4993157;28;20551;-84
2023/09/15 11:43:35;;;;;;;0.10;0.10;;;;;;;32.39;31.13;96740.97;4985250;28;20535;-83
2023/09/15 11:46:21;;;;;;;0.17;0.17;;;;;;;32.47;35.26;96744.59;5001146;28;20074;-83
2023/09/15 11:49:07;;;;;;;0.10;0.10;;;;;;;32.37;34.85;96742.53;5001535;28;20045;-83
2023/09/15 11:51:55;;;;;;;0.20;0.20;;;;;;;32.31;35.10;96741.28;5001460;28;20053;-83
2023/09/15 11:54:44;;;;;;;0.10;0.10;;;;;;;34.36;31.64;96737.00;5001864;28;20504;-82
2023/09/15 11:57:30;;;;;;;0.10;0.10;;;;;;;34.79;33.42;96728.66;4995363;28;20084;-82
2023/09/15 12:00:19;;;;;;;0.10;0.10;;;;;;;33.79;31.94;96739.72;5002684;28;20045;-82
2023/09/15 12:03:07;;;;;;;0.10;0.10;;;;;;;35.18;30.60;96734.13;5000480;28;20749;-81
2023/09/15 12:05:54;;;;;;;0.10;0.10;;;;;;;35.42;29.16;96727.69;5003696;28;20050;-82
2023/09/15 12:08:40;;;;;;;0.10;0.10;;;;;;;36.19;28.81;96730.41;5002164;28;20053;-83
2023/09/15 12:11:26;;;;;;;0.10;0.10;;;;;;;34.48;28.46;96733.88;5003593;28;20203;-84
2023/09/15 12:14:13;;;;;;;0.10;0.10;;;;;;;32.88;31.64;96730.63;5002758;28;20658;-82
2023/09/15 12:16:59;;;;;;;0.10;0.10;;;;;;;32.34;33.88;96735.78;4989737;28;20045;-80
2023/09/15 12:19:48;;;;;;;0.10;0.10;;;;;;;33.44;31.43;96735.66;5003398;28;20128;-81
2023/09/15 12:22:40;;;;;;;0.10;0.10;;;;;;;34.24;29.77;96721.56;5002289;28;20045;-81
2023/09/15 12:25:26;;;;;;;0.10;0.10;;;;;;;35.65;29.46;96715.25;4993796;28;20033;-83
2023/09/15 12:28:12;;;;;;;0.10;0.10;;;;;;;36.28;27.98;96710.44;5004065;28;20041;-82
2023/09/15 12:31:01;;;;;;;0.17;0.17;;;;;;;35.06;28.47;96715.88;5000949;28;20471;-81
2023/09/15 12:33:52;;;;;;;0.10;0.10;;;;;;;34.39;30.38;96715.97;4992070;28;20323;-83
2023/09/15 12:36:38;;;;;;;0.10;0.10;;;;;;;35.61;29.42;96711.69;5000925;28;20240;-81
2023/09/15 12:39:24;;;;;;;0.10;0.10;;;;;;;36.43;27.38;96708.38;4986626;28;20042;-82
2023/09/15 12:42:10;;;;;;;0.10;0.10;;;;;;;37.15;25.51;96709.19;5002868;28;20057;-82
2023/09/15 12:44:56;;;;;;;0.10;0.10;;;;;;;36.59;24.49;96700.25;4998595;28;20053;-82
2023/09/15 12:47:42;;;;;;;0.10;0.10;;;;;;;36.91;25.67;96699.13;4992593;28;20056;-84
2023/09/15 12:50:28;;;;;;;0.10;0.10;;;;;;;35.81;25.35;96696.06;4987406;28;20196;-83
2023/09/15 12:53:14;;;;;;;0.10;0.10;;;;;;;36.41;25.15;96702.38;4991822;28;20725;-83
2023/09/15 12:56:00;;;;;;;0.10;0.10;;;;;;;37.04;25.24;96694.56;4994050;28;20042;-82
2023/09/15 12:58:46;;;;;;;0.10;0.10;;;;;;;38.68;23.46;96695.78;5002003;28;20041;-82
2023/09/15 13:01:32;;;;;;;0.10;0.10;;;;;;;38.82;23.66;96700.31;5000679;28;20053;-81